sensor_id;sensor_type;location;lat;lon;timestamp;temperature;humidity
9837;DHT22;4957;51.412;6.724;2023-12-04T00:02:12;2.80;99.90
9837;DHT22;4957;51.412;6.724;2023-12-04T00:04:50;2.80;99.90
9837;DHT22;4957;51.412;6.724;2023-12-04T00:07:19;2.80;99.90
9837;DHT22;4957;51.412;6.724;2023-12-04T00:09:44;2.80;99.90
9837;DHT22;4957;51.412;6.724;2023-12-04T00:12:10;2.70;99.90
9837;DHT22;4957;51.412;6.724;2023-12-04T00:14:36;2.80;99.90
9837;DHT22;4957;51.412;6.724;2023-12-04T00:17:02;2.80;99.90
9837;DHT22;4957;51.412;6.724;2023-12-04T00:19:30;2.70;99.90
9837;DHT22;4957;51.412;6.724;2023-12-04T00:21:56;2.80;99.90
9837;DHT22;4957;51.412;6.724;2023-12-04T00:24:22;2.80;99.90
9837;DHT22;4957;51.412;6.724;2023-12-04T00:26:47;2.80;99.90
9837;DHT22;4957;51.412;6.724;2023-12-04T00:29:13;2.80;99.90
9837;DHT22;4957;51.412;6.724;2023-12-04T00:31:39;2.80;99.90
9837;DHT22;4957;51.412;6.724;2023-12-04T00:34:05;2.80;99.90
9837;DHT22;4957;51.412;6.724;2023-12-04T00:36:31;2.80;99.90
9837;DHT22;4957;51.412;6.724;2023-12-04T00:38:57;2.80;99.90
9837;DHT22;4957;51.412;6.724;2023-12-04T00:41:23;2.80;99.90
9837;DHT22;4957;51.412;6.724;2023-12-04T00:43:57;2.80;99.90
9837;DHT22;4957;51.412;6.724;2023-12-04T00:46:32;2.80;99.90
9837;DHT22;4957;51.412;6.724;2023-12-04T00:48:58;2.80;99.90
9837;DHT22;4957;51.412;6.724;2023-12-04T00:51:24;2.80;99.90
9837;DHT22;4957;51.412;6.724;2023-12-04T00:53:49;2.70;99.90
9837;DHT22;4957;51.412;6.724;2023-12-04T00:56:15;2.80;99.90
9837;DHT22;4957;51.412;6.724;2023-12-04T00:58:41;2.80;99.90
9837;DHT22;4957;51.412;6.724;2023-12-04T01:01:07;2.70;99.90
9837;DHT22;4957;51.412;6.724;2023-12-04T01:03:32;2.70;99.90
9837;DHT22;4957;51.412;6.724;2023-12-04T01:06:02;2.70;99.90
9837;DHT22;4957;51.412;6.724;2023-12-04T01:08:28;2.70;99.90
9837;DHT22;4957;51.412;6.724;2023-12-04T01:10:55;2.70;99.90
9837;DHT22;4957;51.412;6.724;2023-12-04T01:13:20;2.70;99.90
9837;DHT22;4957;51.412;6.724;2023-12-04T01:15:46;2.80;99.90
9837;DHT22;4957;51.412;6.724;2023-12-04T01:18:14;2.80;99.90
9837;DHT22;4957;51.412;6.724;2023-12-04T01:20:40;2.80;99.90
9837;DHT22;4957;51.412;6.724;2023-12-04T01:23:06;2.80;99.90
9837;DHT22;4957;51.412;6.724;2023-12-04T01:25:31;2.80;99.90
9837;DHT22;4957;51.412;6.724;2023-12-04T01:27:57;2.80;99.90
9837;DHT22;4957;51.412;6.724;2023-12-04T01:30:23;2.80;99.90
9837;DHT22;4957;51.412;6.724;2023-12-04T01:32:48;2.70;99.90
9837;DHT22;4957;51.412;6.724;2023-12-04T01:35:14;2.70;99.90
9837;DHT22;4957;51.412;6.724;2023-12-04T01:37:40;2.70;99.90
9837;DHT22;4957;51.412;6.724;2023-12-04T01:40:06;2.70;99.90
9837;DHT22;4957;51.412;6.724;2023-12-04T01:42:32;2.70;99.90
9837;DHT22;4957;51.412;6.724;2023-12-04T01:44:58;2.70;99.90
9837;DHT22;4957;51.412;6.724;2023-12-04T01:47:24;2.70;99.90
9837;DHT22;4957;51.412;6.724;2023-12-04T01:49:50;2.70;99.90
9837;DHT22;4957;51.412;6.724;2023-12-04T01:52:16;2.70;99.90
9837;DHT22;4957;51.412;6.724;2023-12-04T01:54:42;2.70;99.90
9837;DHT22;4957;51.412;6.724;2023-12-04T01:57:09;2.70;99.90
9837;DHT22;4957;51.412;6.724;2023-12-04T01:59:35;2.70;99.90
9837;DHT22;4957;51.412;6.724;2023-12-04T02:02:01;2.70;99.90
9837;DHT22;4957;51.412;6.724;2023-12-04T02:04:27;2.70;99.90
9837;DHT22;4957;51.412;6.724;2023-12-04T02:06:53;2.70;99.90
9837;DHT22;4957;51.412;6.724;2023-12-04T02:09:19;2.70;99.90
9837;DHT22;4957;51.412;6.724;2023-12-04T02:11:45;2.70;99.90
9837;DHT22;4957;51.412;6.724;2023-12-04T02:14:11;2.70;99.90
9837;DHT22;4957;51.412;6.724;2023-12-04T02:16:39;2.70;99.90
9837;DHT22;4957;51.412;6.724;2023-12-04T02:19:07;2.70;99.90
9837;DHT22;4957;51.412;6.724;2023-12-04T02:21:33;2.60;99.90
9837;DHT22;4957;51.412;6.724;2023-12-04T02:23:59;2.60;99.90
9837;DHT22;4957;51.412;6.724;2023-12-04T02:26:29;2.70;99.90
9837;DHT22;4957;51.412;6.724;2023-12-04T02:29:00;2.60;99.90
9837;DHT22;4957;51.412;6.724;2023-12-04T02:31:27;2.60;99.90
9837;DHT22;4957;51.412;6.724;2023-12-04T02:33:56;2.70;99.90
9837;DHT22;4957;51.412;6.724;2023-12-04T02:36:24;2.60;99.90
9837;DHT22;4957;51.412;6.724;2023-12-04T02:38:51;2.60;99.90
9837;DHT22;4957;51.412;6.724;2023-12-04T02:41:17;2.60;99.90
9837;DHT22;4957;51.412;6.724;2023-12-04T02:43:43;2.60;99.90
9837;DHT22;4957;51.412;6.724;2023-12-04T02:46:09;2.60;99.90
9837;DHT22;4957;51.412;6.724;2023-12-04T02:48:35;2.60;99.90
9837;DHT22;4957;51.412;6.724;2023-12-04T02:51:01;2.60;99.90
9837;DHT22;4957;51.412;6.724;2023-12-04T02:53:27;2.60;99.90
9837;DHT22;4957;51.412;6.724;2023-12-04T02:55:53;2.60;99.90
9837;DHT22;4957;51.412;6.724;2023-12-04T02:58:18;2.60;99.90
9837;DHT22;4957;51.412;6.724;2023-12-04T03:00:44;2.60;99.90
9837;DHT22;4957;51.412;6.724;2023-12-04T03:03:10;2.60;99.90
9837;DHT22;4957;51.412;6.724;2023-12-04T03:05:36;2.60;99.90
9837;DHT22;4957;51.412;6.724;2023-12-04T03:08:01;2.50;99.90
9837;DHT22;4957;51.412;6.724;2023-12-04T03:10:27;2.50;99.90
9837;DHT22;4957;51.412;6.724;2023-12-04T03:12:53;2.50;99.90
9837;DHT22;4957;51.412;6.724;2023-12-04T03:15:19;2.50;99.90
9837;DHT22;4957;51.412;6.724;2023-12-04T03:17:44;2.50;99.90
9837;DHT22;4957;51.412;6.724;2023-12-04T03:20:10;2.50;99.90
9837;DHT22;4957;51.412;6.724;2023-12-04T03:22:37;2.50;99.90
9837;DHT22;4957;51.412;6.724;2023-12-04T03:25:03;2.50;99.90
9837;DHT22;4957;51.412;6.724;2023-12-04T03:27:28;2.50;99.90
9837;DHT22;4957;51.412;6.724;2023-12-04T03:29:54;2.50;99.90
9837;DHT22;4957;51.412;6.724;2023-12-04T03:32:20;2.50;99.90
9837;DHT22;4957;51.412;6.724;2023-12-04T03:34:45;2.60;99.90
9837;DHT22;4957;51.412;6.724;2023-12-04T03:37:11;2.50;99.90
9837;DHT22;4957;51.412;6.724;2023-12-04T03:39:37;2.50;99.90
9837;DHT22;4957;51.412;6.724;2023-12-04T03:42:02;2.50;99.90
9837;DHT22;4957;51.412;6.724;2023-12-04T03:44:28;2.50;99.90
9837;DHT22;4957;51.412;6.724;2023-12-04T03:46:54;2.50;99.90
9837;DHT22;4957;51.412;6.724;2023-12-04T03:49:19;2.50;99.90
9837;DHT22;4957;51.412;6.724;2023-12-04T03:51:45;2.50;99.90
9837;DHT22;4957;51.412;6.724;2023-12-04T03:54:11;2.50;99.90
9837;DHT22;4957;51.412;6.724;2023-12-04T03:56:39;2.50;99.90
9837;DHT22;4957;51.412;6.724;2023-12-04T03:59:04;2.50;99.90
9837;DHT22;4957;51.412;6.724;2023-12-04T04:01:30;2.50;99.90
9837;DHT22;4957;51.412;6.724;2023-12-04T04:03:56;2.50;99.90
9837;DHT22;4957;51.412;6.724;2023-12-04T04:06:21;2.50;99.90
9837;DHT22;4957;51.412;6.724;2023-12-04T04:08:48;2.50;99.90
9837;DHT22;4957;51.412;6.724;2023-12-04T04:11:13;2.60;99.90
9837;DHT22;4957;51.412;6.724;2023-12-04T04:13:39;2.50;99.90
9837;DHT22;4957;51.412;6.724;2023-12-04T04:16:05;2.50;99.90
9837;DHT22;4957;51.412;6.724;2023-12-04T04:18:31;2.50;99.90
9837;DHT22;4957;51.412;6.724;2023-12-04T04:20:57;2.50;99.90
9837;DHT22;4957;51.412;6.724;2023-12-04T04:23:22;2.50;99.90
9837;DHT22;4957;51.412;6.724;2023-12-04T04:25:48;2.50;99.90
9837;DHT22;4957;51.412;6.724;2023-12-04T04:28:14;2.50;99.90
9837;DHT22;4957;51.412;6.724;2023-12-04T04:30:39;2.50;99.90
9837;DHT22;4957;51.412;6.724;2023-12-04T04:33:05;2.50;99.90
9837;DHT22;4957;51.412;6.724;2023-12-04T04:35:31;2.40;99.90
9837;DHT22;4957;51.412;6.724;2023-12-04T04:37:57;2.40;99.90
9837;DHT22;4957;51.412;6.724;2023-12-04T04:40:23;2.40;99.90
9837;DHT22;4957;51.412;6.724;2023-12-04T04:42:48;2.40;99.90
9837;DHT22;4957;51.412;6.724;2023-12-04T04:45:14;2.50;99.90
9837;DHT22;4957;51.412;6.724;2023-12-04T04:47:40;2.40;99.90
9837;DHT22;4957;51.412;6.724;2023-12-04T04:50:06;2.50;99.90
9837;DHT22;4957;51.412;6.724;2023-12-04T04:52:32;2.40;99.90
9837;DHT22;4957;51.412;6.724;2023-12-04T04:54:57;2.40;99.90
9837;DHT22;4957;51.412;6.724;2023-12-04T04:57:23;2.50;99.90
9837;DHT22;4957;51.412;6.724;2023-12-04T04:59:49;2.40;99.90
9837;DHT22;4957;51.412;6.724;2023-12-04T05:02:14;2.40;99.90
9837;DHT22;4957;51.412;6.724;2023-12-04T05:04:40;2.40;99.90
9837;DHT22;4957;51.412;6.724;2023-12-04T05:07:06;2.40;99.90
9837;DHT22;4957;51.412;6.724;2023-12-04T05:09:31;2.40;99.90
9837;DHT22;4957;51.412;6.724;2023-12-04T05:11:57;2.40;99.90
9837;DHT22;4957;51.412;6.724;2023-12-04T05:14:23;2.40;99.90
9837;DHT22;4957;51.412;6.724;2023-12-04T05:16:48;2.40;99.90
9837;DHT22;4957;51.412;6.724;2023-12-04T05:19:14;2.40;99.90
9837;DHT22;4957;51.412;6.724;2023-12-04T05:21:40;2.40;99.90
9837;DHT22;4957;51.412;6.724;2023-12-04T05:24:05;2.40;99.90
9837;DHT22;4957;51.412;6.724;2023-12-04T05:26:31;2.40;99.90
9837;DHT22;4957;51.412;6.724;2023-12-04T05:28:57;2.40;99.90
9837;DHT22;4957;51.412;6.724;2023-12-04T05:31:22;2.40;99.90
9837;DHT22;4957;51.412;6.724;2023-12-04T05:33:48;2.40;99.90
9837;DHT22;4957;51.412;6.724;2023-12-04T05:36:13;2.40;99.90
9837;DHT22;4957;51.412;6.724;2023-12-04T05:38:39;2.30;99.90
9837;DHT22;4957;51.412;6.724;2023-12-04T05:41:05;2.30;99.90
9837;DHT22;4957;51.412;6.724;2023-12-04T05:43:31;2.40;99.90
9837;DHT22;4957;51.412;6.724;2023-12-04T05:45:56;2.30;99.90
9837;DHT22;4957;51.412;6.724;2023-12-04T05:48:22;2.40;99.90
9837;DHT22;4957;51.412;6.724;2023-12-04T05:50:48;2.40;99.90
9837;DHT22;4957;51.412;6.724;2023-12-04T05:53:13;2.30;99.90
9837;DHT22;4957;51.412;6.724;2023-12-04T05:55:39;2.30;99.90
9837;DHT22;4957;51.412;6.724;2023-12-04T05:58:04;2.30;99.90
9837;DHT22;4957;51.412;6.724;2023-12-04T06:00:30;2.30;99.90
9837;DHT22;4957;51.412;6.724;2023-12-04T06:02:56;2.30;99.90
9837;DHT22;4957;51.412;6.724;2023-12-04T06:05:21;2.30;99.90
9837;DHT22;4957;51.412;6.724;2023-12-04T06:07:48;2.30;99.90
9837;DHT22;4957;51.412;6.724;2023-12-04T06:10:14;2.30;99.90
9837;DHT22;4957;51.412;6.724;2023-12-04T06:12:39;2.30;99.90
9837;DHT22;4957;51.412;6.724;2023-12-04T06:15:06;2.30;99.90
9837;DHT22;4957;51.412;6.724;2023-12-04T06:17:31;2.30;99.90
9837;DHT22;4957;51.412;6.724;2023-12-04T06:19:57;2.30;99.90
9837;DHT22;4957;51.412;6.724;2023-12-04T06:22:23;2.30;99.90
9837;DHT22;4957;51.412;6.724;2023-12-04T06:24:49;2.30;99.90
9837;DHT22;4957;51.412;6.724;2023-12-04T06:27:18;2.30;99.90
9837;DHT22;4957;51.412;6.724;2023-12-04T06:29:48;2.30;99.90
9837;DHT22;4957;51.412;6.724;2023-12-04T06:32:15;2.30;99.90
9837;DHT22;4957;51.412;6.724;2023-12-04T06:34:41;2.30;99.90
9837;DHT22;4957;51.412;6.724;2023-12-04T06:37:11;2.30;99.90
9837;DHT22;4957;51.412;6.724;2023-12-04T06:39:38;2.30;99.90
9837;DHT22;4957;51.412;6.724;2023-12-04T06:42:08;2.30;99.90
9837;DHT22;4957;51.412;6.724;2023-12-04T06:44:34;2.30;99.90
9837;DHT22;4957;51.412;6.724;2023-12-04T06:47:01;2.30;99.90
9837;DHT22;4957;51.412;6.724;2023-12-04T06:49:31;2.20;99.90
9837;DHT22;4957;51.412;6.724;2023-12-04T06:51:56;2.20;99.90
9837;DHT22;4957;51.412;6.724;2023-12-04T06:54:22;2.20;99.90
9837;DHT22;4957;51.412;6.724;2023-12-04T06:56:48;2.20;99.90
9837;DHT22;4957;51.412;6.724;2023-12-04T06:59:13;2.30;99.90
9837;DHT22;4957;51.412;6.724;2023-12-04T07:01:39;2.30;99.90
9837;DHT22;4957;51.412;6.724;2023-12-04T07:04:05;2.30;99.90
9837;DHT22;4957;51.412;6.724;2023-12-04T07:06:38;2.30;99.90
9837;DHT22;4957;51.412;6.724;2023-12-04T07:09:04;2.30;99.90
9837;DHT22;4957;51.412;6.724;2023-12-04T07:11:30;2.30;99.90
9837;DHT22;4957;51.412;6.724;2023-12-04T07:13:56;2.30;99.90
9837;DHT22;4957;51.412;6.724;2023-12-04T07:16:21;2.30;99.90
9837;DHT22;4957;51.412;6.724;2023-12-04T07:18:47;2.30;99.90
9837;DHT22;4957;51.412;6.724;2023-12-04T07:21:13;2.30;99.90
9837;DHT22;4957;51.412;6.724;2023-12-04T07:23:38;2.30;99.90
9837;DHT22;4957;51.412;6.724;2023-12-04T07:26:04;2.30;99.90
9837;DHT22;4957;51.412;6.724;2023-12-04T07:28:32;2.30;99.90
9837;DHT22;4957;51.412;6.724;2023-12-04T07:30:58;2.30;99.90
9837;DHT22;4957;51.412;6.724;2023-12-04T07:33:23;2.30;99.90
9837;DHT22;4957;51.412;6.724;2023-12-04T07:35:49;2.30;99.90
9837;DHT22;4957;51.412;6.724;2023-12-04T07:38:16;2.30;99.90
9837;DHT22;4957;51.412;6.724;2023-12-04T07:40:42;2.30;99.90
9837;DHT22;4957;51.412;6.724;2023-12-04T07:43:07;2.30;99.90
9837;DHT22;4957;51.412;6.724;2023-12-04T07:45:33;2.30;99.90
9837;DHT22;4957;51.412;6.724;2023-12-04T07:48:00;2.30;99.90
9837;DHT22;4957;51.412;6.724;2023-12-04T07:50:25;2.30;99.90
9837;DHT22;4957;51.412;6.724;2023-12-04T07:52:51;2.40;99.90
9837;DHT22;4957;51.412;6.724;2023-12-04T07:55:17;2.40;99.90
9837;DHT22;4957;51.412;6.724;2023-12-04T07:57:42;2.40;99.90
9837;DHT22;4957;51.412;6.724;2023-12-04T08:00:08;2.30;99.90
9837;DHT22;4957;51.412;6.724;2023-12-04T08:02:34;2.30;99.90
9837;DHT22;4957;51.412;6.724;2023-12-04T08:05:00;2.30;99.90
9837;DHT22;4957;51.412;6.724;2023-12-04T08:07:25;2.40;99.90
9837;DHT22;4957;51.412;6.724;2023-12-04T08:09:51;2.40;99.90
9837;DHT22;4957;51.412;6.724;2023-12-04T08:12:17;2.30;99.90
9837;DHT22;4957;51.412;6.724;2023-12-04T08:14:43;2.30;99.90
9837;DHT22;4957;51.412;6.724;2023-12-04T08:17:09;2.30;99.90
9837;DHT22;4957;51.412;6.724;2023-12-04T08:19:34;2.40;99.90
9837;DHT22;4957;51.412;6.724;2023-12-04T08:22:00;2.40;99.90
9837;DHT22;4957;51.412;6.724;2023-12-04T08:24:25;2.30;99.90
9837;DHT22;4957;51.412;6.724;2023-12-04T08:26:51;2.30;99.90
9837;DHT22;4957;51.412;6.724;2023-12-04T08:29:17;2.30;99.90
9837;DHT22;4957;51.412;6.724;2023-12-04T08:31:43;2.30;99.90
9837;DHT22;4957;51.412;6.724;2023-12-04T08:34:08;2.40;99.90
9837;DHT22;4957;51.412;6.724;2023-12-04T08:36:35;2.30;99.90
9837;DHT22;4957;51.412;6.724;2023-12-04T08:39:01;2.40;99.90
9837;DHT22;4957;51.412;6.724;2023-12-04T08:41:26;2.40;99.90
9837;DHT22;4957;51.412;6.724;2023-12-04T08:43:54;2.40;99.90
9837;DHT22;4957;51.412;6.724;2023-12-04T08:46:20;2.40;99.90
9837;DHT22;4957;51.412;6.724;2023-12-04T08:48:46;2.40;99.90
9837;DHT22;4957;51.412;6.724;2023-12-04T08:51:17;2.40;99.90
9837;DHT22;4957;51.412;6.724;2023-12-04T08:53:43;2.40;99.90
9837;DHT22;4957;51.412;6.724;2023-12-04T08:56:09;2.40;99.90
9837;DHT22;4957;51.412;6.724;2023-12-04T08:58:35;2.40;99.90
9837;DHT22;4957;51.412;6.724;2023-12-04T09:01:01;2.40;99.90
9837;DHT22;4957;51.412;6.724;2023-12-04T09:03:27;2.40;99.90
9837;DHT22;4957;51.412;6.724;2023-12-04T09:05:52;2.40;99.90
9837;DHT22;4957;51.412;6.724;2023-12-04T09:08:22;2.40;99.90
9837;DHT22;4957;51.412;6.724;2023-12-04T09:10:47;2.40;99.90
9837;DHT22;4957;51.412;6.724;2023-12-04T09:13:14;2.40;99.90
9837;DHT22;4957;51.412;6.724;2023-12-04T09:15:40;2.40;99.90
9837;DHT22;4957;51.412;6.724;2023-12-04T09:18:05;2.50;99.90
9837;DHT22;4957;51.412;6.724;2023-12-04T09:20:31;2.50;99.90
9837;DHT22;4957;51.412;6.724;2023-12-04T09:22:56;2.50;99.90
9837;DHT22;4957;51.412;6.724;2023-12-04T09:25:22;2.50;99.90
9837;DHT22;4957;51.412;6.724;2023-12-04T09:27:48;2.40;99.90
9837;DHT22;4957;51.412;6.724;2023-12-04T09:30:13;2.50;99.90
9837;DHT22;4957;51.412;6.724;2023-12-04T09:32:39;2.50;99.90
9837;DHT22;4957;51.412;6.724;2023-12-04T09:35:06;2.50;99.90
9837;DHT22;4957;51.412;6.724;2023-12-04T09:37:32;2.50;99.90
9837;DHT22;4957;51.412;6.724;2023-12-04T09:39:57;2.50;99.90
9837;DHT22;4957;51.412;6.724;2023-12-04T09:42:23;2.50;99.90
9837;DHT22;4957;51.412;6.724;2023-12-04T09:44:52;2.50;99.90
9837;DHT22;4957;51.412;6.724;2023-12-04T09:47:18;2.50;99.90
9837;DHT22;4957;51.412;6.724;2023-12-04T09:49:47;2.50;99.90
9837;DHT22;4957;51.412;6.724;2023-12-04T09:52:14;2.50;99.90
9837;DHT22;4957;51.412;6.724;2023-12-04T09:54:40;2.50;99.90
9837;DHT22;4957;51.412;6.724;2023-12-04T09:57:08;2.50;99.90
9837;DHT22;4957;51.412;6.724;2023-12-04T09:59:34;2.50;99.90
9837;DHT22;4957;51.412;6.724;2023-12-04T10:02:01;2.50;99.90
9837;DHT22;4957;51.412;6.724;2023-12-04T10:04:27;2.50;99.90
9837;DHT22;4957;51.412;6.724;2023-12-04T10:06:52;2.50;99.90
9837;DHT22;4957;51.412;6.724;2023-12-04T10:09:19;2.50;99.90
9837;DHT22;4957;51.412;6.724;2023-12-04T10:11:48;2.50;99.90
9837;DHT22;4957;51.412;6.724;2023-12-04T10:14:18;2.60;99.90
9837;DHT22;4957;51.412;6.724;2023-12-04T10:16:44;2.50;99.90
9837;DHT22;4957;51.412;6.724;2023-12-04T10:19:17;2.50;99.90
9837;DHT22;4957;51.412;6.724;2023-12-04T10:21:44;2.50;99.90
9837;DHT22;4957;51.412;6.724;2023-12-04T10:24:10;2.50;99.90
9837;DHT22;4957;51.412;6.724;2023-12-04T10:26:36;2.50;99.90
9837;DHT22;4957;51.412;6.724;2023-12-04T10:29:03;2.60;99.90
9837;DHT22;4957;51.412;6.724;2023-12-04T10:31:34;2.60;99.90
9837;DHT22;4957;51.412;6.724;2023-12-04T10:34:01;2.60;99.90
9837;DHT22;4957;51.412;6.724;2023-12-04T10:36:28;2.60;99.90
9837;DHT22;4957;51.412;6.724;2023-12-04T10:39:00;2.70;99.90
9837;DHT22;4957;51.412;6.724;2023-12-04T10:41:26;2.70;99.90
9837;DHT22;4957;51.412;6.724;2023-12-04T10:43:52;2.70;99.90
9837;DHT22;4957;51.412;6.724;2023-12-04T10:46:18;2.70;99.90
9837;DHT22;4957;51.412;6.724;2023-12-04T10:48:45;2.70;99.90
9837;DHT22;4957;51.412;6.724;2023-12-04T10:51:13;2.80;99.90
9837;DHT22;4957;51.412;6.724;2023-12-04T10:53:39;2.80;99.90
9837;DHT22;4957;51.412;6.724;2023-12-04T10:56:17;2.80;99.90
9837;DHT22;4957;51.412;6.724;2023-12-04T10:58:44;2.80;99.90
9837;DHT22;4957;51.412;6.724;2023-12-04T11:01:13;2.80;99.90
9837;DHT22;4957;51.412;6.724;2023-12-04T11:03:48;2.80;99.90
9837;DHT22;4957;51.412;6.724;2023-12-04T11:06:16;2.80;99.90
9837;DHT22;4957;51.412;6.724;2023-12-04T11:08:47;2.80;99.90
9837;DHT22;4957;51.412;6.724;2023-12-04T11:11:18;2.80;99.90
9837;DHT22;4957;51.412;6.724;2023-12-04T11:13:49;2.80;99.90
9837;DHT22;4957;51.412;6.724;2023-12-04T11:16:35;2.80;99.90
9837;DHT22;4957;51.412;6.724;2023-12-04T11:21:39;2.80;99.90
9837;DHT22;4957;51.412;6.724;2023-12-04T11:24:06;2.80;99.90
9837;DHT22;4957;51.412;6.724;2023-12-04T11:26:32;2.80;99.90
9837;DHT22;4957;51.412;6.724;2023-12-04T11:28:59;2.80;99.90
9837;DHT22;4957;51.412;6.724;2023-12-04T11:31:25;2.80;99.90
9837;DHT22;4957;51.412;6.724;2023-12-04T11:33:51;2.80;99.90
9837;DHT22;4957;51.412;6.724;2023-12-04T11:36:17;2.90;99.90
9837;DHT22;4957;51.412;6.724;2023-12-04T11:38:46;2.90;99.90
9837;DHT22;4957;51.412;6.724;2023-12-04T11:41:21;2.90;99.90
9837;DHT22;4957;51.412;6.724;2023-12-04T11:43:47;2.90;99.90
9837;DHT22;4957;51.412;6.724;2023-12-04T11:46:23;2.90;99.90
9837;DHT22;4957;51.412;6.724;2023-12-04T11:48:49;2.90;99.90
9837;DHT22;4957;51.412;6.724;2023-12-04T11:54:07;3.00;99.90
9837;DHT22;4957;51.412;6.724;2023-12-04T11:56:32;3.00;99.90
9837;DHT22;4957;51.412;6.724;2023-12-04T11:59:05;3.00;99.90
9837;DHT22;4957;51.412;6.724;2023-12-04T12:01:37;3.00;99.90
9837;DHT22;4957;51.412;6.724;2023-12-04T12:04:06;3.10;99.90
9837;DHT22;4957;51.412;6.724;2023-12-04T12:06:32;3.10;99.90
9837;DHT22;4957;51.412;6.724;2023-12-04T12:08:58;3.10;99.90
9837;DHT22;4957;51.412;6.724;2023-12-04T12:11:25;3.10;99.90
9837;DHT22;4957;51.412;6.724;2023-12-04T12:13:53;3.20;99.90
9837;DHT22;4957;51.412;6.724;2023-12-04T12:16:19;3.20;99.90
9837;DHT22;4957;51.412;6.724;2023-12-04T12:18:44;3.30;99.90
9837;DHT22;4957;51.412;6.724;2023-12-04T12:21:10;3.30;99.90
9837;DHT22;4957;51.412;6.724;2023-12-04T12:23:36;3.30;99.90
9837;DHT22;4957;51.412;6.724;2023-12-04T12:26:02;3.40;99.90
9837;DHT22;4957;51.412;6.724;2023-12-04T12:28:30;3.40;99.90
9837;DHT22;4957;51.412;6.724;2023-12-04T12:30:56;3.40;99.90
9837;DHT22;4957;51.412;6.724;2023-12-04T12:33:22;3.50;99.90
9837;DHT22;4957;51.412;6.724;2023-12-04T12:35:48;3.50;99.90
9837;DHT22;4957;51.412;6.724;2023-12-04T12:38:15;3.50;99.90
9837;DHT22;4957;51.412;6.724;2023-12-04T12:40:41;3.60;99.90
9837;DHT22;4957;51.412;6.724;2023-12-04T12:43:07;3.60;99.90
9837;DHT22;4957;51.412;6.724;2023-12-04T12:45:43;3.60;99.90
9837;DHT22;4957;51.412;6.724;2023-12-04T12:48:16;3.70;99.90
9837;DHT22;4957;51.412;6.724;2023-12-04T12:50:46;3.70;99.90
9837;DHT22;4957;51.412;6.724;2023-12-04T12:53:13;3.80;99.90
9837;DHT22;4957;51.412;6.724;2023-12-04T12:55:42;3.80;99.90
9837;DHT22;4957;51.412;6.724;2023-12-04T12:58:11;3.80;99.90
9837;DHT22;4957;51.412;6.724;2023-12-04T13:00:42;3.80;99.90
9837;DHT22;4957;51.412;6.724;2023-12-04T13:03:15;3.90;99.90
9837;DHT22;4957;51.412;6.724;2023-12-04T13:05:41;3.90;99.90
9837;DHT22;4957;51.412;6.724;2023-12-04T13:08:07;3.90;99.90
9837;DHT22;4957;51.412;6.724;2023-12-04T13:10:32;3.90;99.90
9837;DHT22;4957;51.412;6.724;2023-12-04T13:12:58;4.00;99.90
9837;DHT22;4957;51.412;6.724;2023-12-04T13:15:28;4.10;99.90
9837;DHT22;4957;51.412;6.724;2023-12-04T13:17:54;4.10;99.90
9837;DHT22;4957;51.412;6.724;2023-12-04T13:20:20;4.10;99.90
9837;DHT22;4957;51.412;6.724;2023-12-04T13:22:45;4.20;99.90
9837;DHT22;4957;51.412;6.724;2023-12-04T13:25:11;4.20;99.90
9837;DHT22;4957;51.412;6.724;2023-12-04T13:27:37;4.20;99.90
9837;DHT22;4957;51.412;6.724;2023-12-04T13:30:09;4.30;99.90
9837;DHT22;4957;51.412;6.724;2023-12-04T13:32:36;4.30;99.90
9837;DHT22;4957;51.412;6.724;2023-12-04T13:35:02;4.40;99.90
9837;DHT22;4957;51.412;6.724;2023-12-04T13:37:33;4.30;99.90
9837;DHT22;4957;51.412;6.724;2023-12-04T13:40:01;4.30;99.90
9837;DHT22;4957;51.412;6.724;2023-12-04T13:42:32;4.40;99.90
9837;DHT22;4957;51.412;6.724;2023-12-04T13:45:17;4.30;99.90
9837;DHT22;4957;51.412;6.724;2023-12-04T13:47:42;4.40;99.90
9837;DHT22;4957;51.412;6.724;2023-12-04T13:50:09;4.40;99.90
9837;DHT22;4957;51.412;6.724;2023-12-04T13:52:36;4.40;99.90
9837;DHT22;4957;51.412;6.724;2023-12-04T13:55:02;4.40;99.90
9837;DHT22;4957;51.412;6.724;2023-12-04T13:57:36;4.40;99.90
9837;DHT22;4957;51.412;6.724;2023-12-04T14:00:10;4.40;99.90
9837;DHT22;4957;51.412;6.724;2023-12-04T14:02:36;4.40;99.90
9837;DHT22;4957;51.412;6.724;2023-12-04T14:05:03;4.40;99.90
9837;DHT22;4957;51.412;6.724;2023-12-04T14:07:29;4.40;99.90
9837;DHT22;4957;51.412;6.724;2023-12-04T14:09:54;4.40;99.90
9837;DHT22;4957;51.412;6.724;2023-12-04T14:12:20;4.40;99.90
9837;DHT22;4957;51.412;6.724;2023-12-04T14:14:46;4.40;99.90
9837;DHT22;4957;51.412;6.724;2023-12-04T14:17:13;4.40;99.90
9837;DHT22;4957;51.412;6.724;2023-12-04T14:19:39;4.40;99.90
9837;DHT22;4957;51.412;6.724;2023-12-04T14:22:05;4.40;99.90
9837;DHT22;4957;51.412;6.724;2023-12-04T14:24:31;4.40;99.90
9837;DHT22;4957;51.412;6.724;2023-12-04T14:26:57;4.40;99.90
9837;DHT22;4957;51.412;6.724;2023-12-04T14:29:23;4.50;99.90
9837;DHT22;4957;51.412;6.724;2023-12-04T14:31:48;4.50;99.90
9837;DHT22;4957;51.412;6.724;2023-12-04T14:34:15;4.50;99.90
9837;DHT22;4957;51.412;6.724;2023-12-04T14:36:41;4.50;99.90
9837;DHT22;4957;51.412;6.724;2023-12-04T14:39:07;4.50;99.90
9837;DHT22;4957;51.412;6.724;2023-12-04T14:41:32;4.50;99.90
9837;DHT22;4957;51.412;6.724;2023-12-04T14:43:58;4.50;99.90
9837;DHT22;4957;51.412;6.724;2023-12-04T14:46:24;4.50;99.90
9837;DHT22;4957;51.412;6.724;2023-12-04T14:48:49;4.50;99.90
9837;DHT22;4957;51.412;6.724;2023-12-04T14:51:15;4.50;99.90
9837;DHT22;4957;51.412;6.724;2023-12-04T14:53:41;4.40;99.90
9837;DHT22;4957;51.412;6.724;2023-12-04T14:56:24;4.40;99.90
9837;DHT22;4957;51.412;6.724;2023-12-04T14:58:52;4.40;99.90
9837;DHT22;4957;51.412;6.724;2023-12-04T15:01:38;4.40;99.90
9837;DHT22;4957;51.412;6.724;2023-12-04T15:04:16;4.40;99.90
9837;DHT22;4957;51.412;6.724;2023-12-04T15:06:54;4.40;99.90
9837;DHT22;4957;51.412;6.724;2023-12-04T15:09:38;4.40;99.90
9837;DHT22;4957;51.412;6.724;2023-12-04T15:12:22;4.50;99.90
9837;DHT22;4957;51.412;6.724;2023-12-04T15:15:02;4.40;99.90
9837;DHT22;4957;51.412;6.724;2023-12-04T15:17:46;4.40;99.90
9837;DHT22;4957;51.412;6.724;2023-12-04T15:20:17;4.40;99.90
9837;DHT22;4957;51.412;6.724;2023-12-04T15:22:58;4.40;99.90
9837;DHT22;4957;51.412;6.724;2023-12-04T15:25:24;4.40;99.90
9837;DHT22;4957;51.412;6.724;2023-12-04T15:27:50;4.40;99.90
9837;DHT22;4957;51.412;6.724;2023-12-04T15:30:16;4.40;99.90
9837;DHT22;4957;51.412;6.724;2023-12-04T15:32:42;4.40;99.90
9837;DHT22;4957;51.412;6.724;2023-12-04T15:35:08;4.40;99.90
9837;DHT22;4957;51.412;6.724;2023-12-04T15:37:35;4.40;99.90
9837;DHT22;4957;51.412;6.724;2023-12-04T15:40:01;4.40;99.90
9837;DHT22;4957;51.412;6.724;2023-12-04T15:42:26;4.40;99.90
9837;DHT22;4957;51.412;6.724;2023-12-04T15:44:54;4.40;99.90
9837;DHT22;4957;51.412;6.724;2023-12-04T15:47:19;4.40;99.90
9837;DHT22;4957;51.412;6.724;2023-12-04T15:49:47;4.40;99.90
9837;DHT22;4957;51.412;6.724;2023-12-04T15:52:13;4.40;99.90
9837;DHT22;4957;51.412;6.724;2023-12-04T15:54:39;4.30;99.90
9837;DHT22;4957;51.412;6.724;2023-12-04T15:57:04;4.40;99.90
9837;DHT22;4957;51.412;6.724;2023-12-04T15:59:31;4.30;99.90
9837;DHT22;4957;51.412;6.724;2023-12-04T16:01:57;4.30;99.90
9837;DHT22;4957;51.412;6.724;2023-12-04T16:04:22;4.30;99.90
9837;DHT22;4957;51.412;6.724;2023-12-04T16:06:48;4.30;99.90
9837;DHT22;4957;51.412;6.724;2023-12-04T16:09:14;4.20;99.90
9837;DHT22;4957;51.412;6.724;2023-12-04T16:11:40;4.20;99.90
9837;DHT22;4957;51.412;6.724;2023-12-04T16:14:06;4.10;99.90
9837;DHT22;4957;51.412;6.724;2023-12-04T16:16:32;4.10;99.90
9837;DHT22;4957;51.412;6.724;2023-12-04T16:18:58;4.10;99.90
9837;DHT22;4957;51.412;6.724;2023-12-04T16:21:24;4.10;99.90